createdAt,value
2018-06-13T00:00:39.593Z,0.00
2018-06-13T00:01:39.594Z,0.00
2018-06-13T00:02:39.591Z,0.00
2018-06-13T00:03:39.590Z,0.00
2018-06-13T00:04:39.590Z,0.00
2018-06-13T00:05:39.587Z,0.00
2018-06-13T00:06:39.585Z,0.00
2018-06-13T00:07:39.584Z,0.00
2018-06-13T00:08:39.579Z,0.00
2018-06-13T00:09:39.579Z,0.00
2018-06-13T00:10:39.577Z,0.00
2018-06-13T00:11:39.575Z,0.00
2018-06-13T00:12:39.572Z,0.00
2018-06-13T00:13:39.570Z,0.00
2018-06-13T00:14:39.571Z,0.00
2018-06-13T00:15:39.568Z,0.00
2018-06-13T00:16:39.563Z,0.00
2018-06-13T00:17:39.562Z,0.00
2018-06-13T00:18:39.562Z,0.00
2018-06-13T00:19:39.559Z,0.00
2018-06-13T00:20:39.561Z,0.00
2018-06-13T00:21:39.558Z,0.00
2018-06-13T00:22:39.552Z,0.00
2018-06-13T00:23:39.551Z,0.00
2018-06-13T00:24:39.549Z,0.00
2018-06-13T00:25:39.547Z,0.00
2018-06-13T00:26:39.546Z,0.00
2018-06-13T00:27:39.544Z,0.00
2018-06-13T00:28:39.543Z,0.00
2018-06-13T00:29:39.540Z,0.00
2018-06-13T00:30:39.538Z,0.00
2018-06-13T00:31:39.539Z,0.00
2018-06-13T00:32:39.584Z,0.00
2018-06-13T00:33:39.547Z,0.00
2018-06-13T00:34:39.537Z,0.00
2018-06-13T00:35:39.533Z,0.00
2018-06-13T00:36:39.530Z,0.00
2018-06-13T00:37:39.525Z,0.00
2018-06-13T00:38:39.524Z,0.00
2018-06-13T00:39:39.521Z,0.00
2018-06-13T00:40:39.520Z,0.00
2018-06-13T00:41:39.520Z,0.00
2018-06-13T00:42:39.518Z,0.00
2018-06-13T00:43:39.514Z,0.00
2018-06-13T00:44:39.512Z,0.00
2018-06-13T00:45:39.511Z,0.00
2018-06-13T00:46:39.509Z,0.00
2018-06-13T00:47:39.507Z,0.00
2018-06-13T00:48:39.505Z,0.00
2018-06-13T00:49:39.504Z,0.00
2018-06-13T00:50:39.503Z,0.00
2018-06-13T00:51:39.501Z,0.00
2018-06-13T00:52:39.498Z,0.00
2018-06-13T00:53:39.498Z,0.00
2018-06-13T00:54:39.494Z,0.00
2018-06-13T00:55:39.493Z,0.00
2018-06-13T00:56:39.490Z,0.00
2018-06-13T00:57:39.490Z,0.00
2018-06-13T00:58:39.488Z,0.00
2018-06-13T00:59:39.486Z,0.00
2018-06-13T01:00:39.483Z,0.00
2018-06-13T01:01:39.483Z,0.00
2018-06-13T01:02:39.481Z,0.00
2018-06-13T01:03:39.478Z,0.00
2018-06-13T01:04:39.480Z,0.00
2018-06-13T01:05:39.477Z,0.00
2018-06-13T01:06:39.480Z,0.00
2018-06-13T01:07:39.468Z,0.00
2018-06-13T01:08:39.468Z,0.00
2018-06-13T01:09:39.467Z,0.00
2018-06-13T01:10:39.464Z,0.00
2018-06-13T01:11:39.465Z,0.00
2018-06-13T01:12:39.461Z,0.00
2018-06-13T01:13:39.459Z,0.00
2018-06-13T01:14:39.456Z,0.00
2018-06-13T01:15:39.459Z,0.00
2018-06-13T01:16:39.450Z,0.00
2018-06-13T01:17:39.451Z,0.00
2018-06-13T01:18:39.450Z,0.00
2018-06-13T01:19:39.447Z,0.00
2018-06-13T01:20:39.444Z,0.00
2018-06-13T01:21:39.441Z,0.00
2018-06-13T01:22:39.441Z,0.00
2018-06-13T01:23:39.441Z,0.00
2018-06-13T01:24:39.436Z,0.00
2018-06-13T01:25:39.436Z,0.00
2018-06-13T01:26:39.435Z,0.00
2018-06-13T01:27:39.430Z,0.00
2018-06-13T01:28:39.429Z,0.00
2018-06-13T01:29:39.427Z,0.00
2018-06-13T01:30:39.428Z,0.00
2018-06-13T01:31:39.422Z,0.00
2018-06-13T01:32:39.420Z,0.00
2018-06-13T01:33:39.421Z,0.00
2018-06-13T01:34:39.417Z,0.00
2018-06-13T01:35:39.416Z,0.00
2018-06-13T01:36:39.412Z,0.00
2018-06-13T01:37:39.411Z,0.00
2018-06-13T01:38:39.409Z,0.00
2018-06-13T01:39:39.408Z,0.00
2018-06-13T01:40:39.405Z,0.00
2018-06-13T01:41:39.404Z,0.00
2018-06-13T01:42:39.401Z,0.00
2018-06-13T01:43:39.398Z,0.00
2018-06-13T01:44:39.395Z,0.00
2018-06-13T01:45:39.395Z,0.00
2018-06-13T01:46:39.392Z,0.00
2018-06-13T01:47:39.390Z,0.00
2018-06-13T01:48:39.387Z,0.00
2018-06-13T01:49:39.385Z,0.00
2018-06-13T01:50:39.383Z,0.00
2018-06-13T01:51:39.380Z,0.00
2018-06-13T01:52:39.379Z,0.00
2018-06-13T01:53:39.379Z,0.00
2018-06-13T01:54:39.376Z,0.00
2018-06-13T01:55:39.375Z,0.00
2018-06-13T01:56:39.375Z,0.00
2018-06-13T01:57:39.372Z,0.00
2018-06-13T01:58:39.368Z,0.00
2018-06-13T01:59:39.364Z,0.00
2018-06-13T02:00:39.364Z,0.00
2018-06-13T02:01:39.364Z,0.00
2018-06-13T02:02:39.360Z,0.00
2018-06-13T02:03:39.358Z,0.00
2018-06-13T02:04:39.355Z,0.00
2018-06-13T02:05:39.358Z,0.00
2018-06-13T02:06:39.353Z,0.00
2018-06-13T02:07:39.349Z,0.00
2018-06-13T02:08:39.348Z,0.00
2018-06-13T02:09:39.345Z,0.00
2018-06-13T02:10:39.343Z,0.00
2018-06-13T02:11:39.342Z,0.00
2018-06-13T02:12:39.338Z,0.00
2018-06-13T02:13:39.337Z,0.00
2018-06-13T02:14:39.334Z,0.00
2018-06-13T02:15:39.336Z,0.00
2018-06-13T02:16:39.330Z,0.00
2018-06-13T02:17:39.327Z,0.00
2018-06-13T02:18:39.325Z,0.00
2018-06-13T02:19:39.323Z,0.00
2018-06-13T02:20:39.320Z,0.00
2018-06-13T02:21:39.319Z,0.00
2018-06-13T02:22:39.317Z,0.00
2018-06-13T02:23:39.314Z,0.00
2018-06-13T02:24:39.311Z,0.00
2018-06-13T02:25:39.315Z,0.00
2018-06-13T02:26:39.311Z,0.00
2018-06-13T02:27:39.308Z,0.00
2018-06-13T02:28:39.303Z,0.00
2018-06-13T02:29:39.300Z,0.00
2018-06-13T02:30:39.294Z,0.00
2018-06-13T02:31:39.296Z,0.00
2018-06-13T02:32:39.294Z,0.00
2018-06-13T02:33:39.293Z,0.00
2018-06-13T02:34:39.291Z,0.00
2018-06-13T02:35:39.289Z,0.00
2018-06-13T02:36:39.285Z,0.00
2018-06-13T02:37:39.285Z,0.00
2018-06-13T02:38:39.284Z,0.00
2018-06-13T02:39:39.277Z,0.00
2018-06-13T02:40:39.278Z,0.00
2018-06-13T02:41:39.274Z,0.00
2018-06-13T02:42:39.273Z,0.00
2018-06-13T02:43:39.272Z,0.00
2018-06-13T02:44:39.307Z,0.00
2018-06-13T02:45:39.272Z,0.00
2018-06-13T02:46:39.261Z,0.00
2018-06-13T02:47:39.259Z,0.00
2018-06-13T02:48:39.258Z,0.00
2018-06-13T02:49:39.254Z,0.00
2018-06-13T02:50:39.250Z,0.00
2018-06-13T02:51:39.248Z,0.00
2018-06-13T02:52:39.246Z,0.00
2018-06-13T02:53:39.246Z,0.00
2018-06-13T02:54:39.242Z,0.00
2018-06-13T02:55:39.238Z,0.00
2018-06-13T02:56:39.238Z,0.00
2018-06-13T02:57:39.234Z,0.00
2018-06-13T02:58:39.231Z,0.00
2018-06-13T02:59:39.233Z,0.00
2018-06-13T03:00:39.271Z,0.00
2018-06-13T03:01:39.223Z,0.00
2018-06-13T03:02:39.222Z,0.00
2018-06-13T03:03:39.219Z,0.00
2018-06-13T03:04:39.215Z,0.00
2018-06-13T03:05:39.213Z,0.00
2018-06-13T03:06:39.213Z,0.00
2018-06-13T03:07:39.209Z,0.00
2018-06-13T03:08:39.204Z,0.00
2018-06-13T03:09:39.203Z,0.00
2018-06-13T03:10:39.200Z,0.00
2018-06-13T03:11:39.199Z,0.00
2018-06-13T03:12:39.198Z,5.63
2018-06-13T03:13:39.193Z,5.63
2018-06-13T03:14:39.190Z,5.63
2018-06-13T03:15:39.189Z,5.63
2018-06-13T03:16:39.185Z,5.63
2018-06-13T03:17:39.182Z,5.63
2018-06-13T03:18:39.179Z,5.63
2018-06-13T03:19:39.179Z,5.63
2018-06-13T03:20:39.175Z,5.63
2018-06-13T03:21:39.178Z,5.63
2018-06-13T03:22:39.176Z,11.25
2018-06-13T03:23:39.169Z,11.25
2018-06-13T03:24:39.165Z,11.25
2018-06-13T03:25:39.163Z,11.25
2018-06-13T03:26:39.159Z,11.25
2018-06-13T03:27:39.160Z,11.25
2018-06-13T03:28:39.157Z,16.88
2018-06-13T03:29:39.154Z,16.88
2018-06-13T03:30:39.151Z,16.88
2018-06-13T03:31:39.152Z,16.88
2018-06-13T03:32:39.151Z,16.88
2018-06-13T03:33:39.147Z,22.50
2018-06-13T03:34:39.143Z,22.50
2018-06-13T03:35:39.140Z,22.50
2018-06-13T03:36:39.138Z,22.50
2018-06-13T03:37:39.139Z,22.50
2018-06-13T03:38:39.133Z,28.13
2018-06-13T03:39:39.130Z,28.13
2018-06-13T03:40:39.129Z,28.13
2018-06-13T03:41:39.122Z,33.75
2018-06-13T03:42:39.124Z,33.75
2018-06-13T03:43:39.125Z,33.75
2018-06-13T03:44:39.119Z,33.75
2018-06-13T03:45:39.115Z,39.38
2018-06-13T03:46:39.113Z,39.38
2018-06-13T03:47:39.110Z,39.38
2018-06-13T03:48:39.106Z,39.38
2018-06-13T03:49:39.104Z,39.38
2018-06-13T03:50:39.101Z,45.00
2018-06-13T03:51:39.100Z,45.00
2018-06-13T03:52:39.097Z,45.00
2018-06-13T03:53:39.099Z,50.63
2018-06-13T03:54:39.092Z,50.63
2018-06-13T03:55:39.088Z,56.25
2018-06-13T03:56:39.086Z,56.25
2018-06-13T03:57:39.085Z,56.25
2018-06-13T03:58:39.081Z,56.25
2018-06-13T03:59:39.082Z,61.88
2018-06-13T04:00:39.075Z,61.88
2018-06-13T04:01:39.073Z,61.88
2018-06-13T04:02:39.069Z,67.50
2018-06-13T04:03:39.068Z,67.50
2018-06-13T04:04:39.064Z,67.50
2018-06-13T04:05:39.062Z,73.13
2018-06-13T04:06:39.062Z,73.13
2018-06-13T04:07:39.049Z,73.13
2018-06-13T04:08:39.050Z,78.75
2018-06-13T04:09:39.041Z,78.75
2018-06-13T04:10:39.060Z,78.75
2018-06-13T04:11:39.047Z,78.75
2018-06-13T04:12:39.041Z,78.75
2018-06-13T04:13:39.083Z,78.75
2018-06-13T04:14:39.038Z,84.38
2018-06-13T04:15:39.037Z,84.38
2018-06-13T04:16:39.031Z,90.00
2018-06-13T04:17:39.030Z,90.00
2018-06-13T04:18:39.027Z,90.00
2018-06-13T04:19:39.042Z,90.00
2018-06-13T04:20:39.022Z,90.00
2018-06-13T04:21:39.019Z,95.63
2018-06-13T04:22:39.016Z,95.63
2018-06-13T04:23:39.013Z,95.63
2018-06-13T04:24:39.016Z,101.25
2018-06-13T04:25:39.007Z,101.25
2018-06-13T04:26:39.004Z,106.88
2018-06-13T04:27:39.001Z,106.88
2018-06-13T04:28:39.001Z,106.88
2018-06-13T04:29:38.996Z,106.88
2018-06-13T04:30:38.995Z,112.50
2018-06-13T04:31:38.995Z,112.50
2018-06-13T04:32:39.050Z,112.50
2018-06-13T04:33:38.985Z,118.13
2018-06-13T04:34:38.979Z,118.13
2018-06-13T04:35:38.975Z,123.75
2018-06-13T04:36:38.975Z,123.75
2018-06-13T04:37:38.976Z,123.75
2018-06-13T04:38:38.971Z,129.38
2018-06-13T04:39:38.968Z,129.38
2018-06-13T04:40:38.958Z,129.38
2018-06-13T04:41:38.963Z,135.00
2018-06-13T04:42:38.957Z,135.00
2018-06-13T04:43:38.956Z,140.63
2018-06-13T04:44:38.955Z,146.25
2018-06-13T04:45:38.953Z,140.63
2018-06-13T04:46:38.948Z,140.63
2018-06-13T04:47:38.947Z,140.63
2018-06-13T04:48:38.961Z,140.63
2018-06-13T04:49:38.934Z,146.25
2018-06-13T04:50:38.936Z,146.25
2018-06-13T04:51:38.930Z,146.25
2018-06-13T04:52:38.938Z,146.25
2018-06-13T04:53:38.927Z,146.25
2018-06-13T04:54:38.927Z,151.88
2018-06-13T04:55:38.944Z,151.88
2018-06-13T04:56:38.921Z,163.13
2018-06-13T04:57:38.913Z,163.13
2018-06-13T04:58:38.911Z,163.13
2018-06-13T04:59:38.910Z,163.13
2018-06-13T05:00:38.907Z,163.13
2018-06-13T05:01:38.919Z,163.13
2018-06-13T05:02:38.902Z,163.13
2018-06-13T05:03:38.890Z,163.13
2018-06-13T05:04:38.894Z,174.38
2018-06-13T05:05:38.885Z,168.75
2018-06-13T05:06:38.891Z,168.75
2018-06-13T05:07:38.886Z,168.75
2018-06-13T05:08:38.887Z,168.75
2018-06-13T05:09:38.881Z,168.75
2018-06-13T05:10:38.874Z,168.75
2018-06-13T05:11:38.872Z,163.13
2018-06-13T05:12:38.867Z,163.13
2018-06-13T05:13:38.866Z,168.75
2018-06-13T05:14:38.865Z,168.75
2018-06-13T05:15:38.864Z,168.75
2018-06-13T05:16:38.864Z,174.38
2018-06-13T05:17:38.856Z,163.13
2018-06-13T05:18:38.856Z,163.13
2018-06-13T05:19:38.851Z,163.13
2018-06-13T05:20:38.851Z,168.75
2018-06-13T05:21:38.846Z,168.75
2018-06-13T05:22:38.844Z,163.13
2018-06-13T05:23:38.843Z,168.75
2018-06-13T05:24:38.835Z,180.00
2018-06-13T05:25:38.838Z,174.38
2018-06-13T05:26:38.833Z,174.38
2018-06-13T05:27:38.830Z,168.75
2018-06-13T05:28:38.853Z,168.75
2018-06-13T05:29:38.816Z,168.75
2018-06-13T05:30:38.814Z,168.75
2018-06-13T05:31:38.820Z,168.75
2018-06-13T05:32:38.817Z,168.75
2018-06-13T05:33:38.811Z,168.75
2018-06-13T05:34:38.809Z,168.75
2018-06-13T05:35:38.804Z,168.75
2018-06-13T05:36:38.802Z,174.38
2018-06-13T05:37:38.799Z,174.38
2018-06-13T05:38:38.801Z,174.38
2018-06-13T05:39:38.792Z,174.38
2018-06-13T05:40:38.785Z,174.38
2018-06-13T05:41:38.789Z,168.75
2018-06-13T05:42:38.782Z,168.75
2018-06-13T05:43:38.780Z,168.75
2018-06-13T05:44:38.774Z,168.75
2018-06-13T05:45:38.773Z,168.75
2018-06-13T05:46:38.767Z,168.75
2018-06-13T05:47:38.771Z,168.75
2018-06-13T05:48:38.764Z,168.75
2018-06-13T05:49:38.761Z,168.75
2018-06-13T05:50:38.755Z,168.75
2018-06-13T05:51:38.751Z,168.75
2018-06-13T05:52:38.749Z,168.75
2018-06-13T05:53:38.750Z,168.75
2018-06-13T05:54:38.744Z,168.75
2018-06-13T05:55:38.743Z,168.75
2018-06-13T05:56:38.736Z,168.75
2018-06-13T05:57:38.737Z,174.38
2018-06-13T05:58:38.732Z,174.38
2018-06-13T05:59:38.729Z,174.38
2018-06-13T06:00:38.721Z,174.38
2018-06-13T06:01:38.730Z,174.38
2018-06-13T06:02:38.717Z,174.38
2018-06-13T06:03:38.718Z,174.38
2018-06-13T06:04:38.709Z,174.38
2018-06-13T06:05:38.710Z,174.38
2018-06-13T06:06:38.715Z,174.38
2018-06-13T06:07:38.698Z,174.38
2018-06-13T06:08:38.700Z,180.00
2018-06-13T06:09:38.693Z,180.00
2018-06-13T06:10:38.691Z,180.00
2018-06-13T06:11:38.699Z,180.00
2018-06-13T06:12:38.689Z,180.00
2018-06-13T06:13:38.681Z,180.00
2018-06-13T06:14:38.674Z,180.00
2018-06-13T06:15:38.676Z,180.00
2018-06-13T06:16:38.674Z,180.00
2018-06-13T06:17:38.670Z,180.00
2018-06-13T06:18:38.666Z,180.00
2018-06-13T06:19:38.669Z,180.00
2018-06-13T06:20:38.661Z,185.63
2018-06-13T06:21:38.655Z,180.00
2018-06-13T06:22:38.660Z,180.00
2018-06-13T06:23:38.722Z,185.63
2018-06-13T06:24:38.648Z,185.63
2018-06-13T06:25:38.648Z,185.63
2018-06-13T06:26:38.645Z,185.63
2018-06-13T06:27:38.640Z,185.63
2018-06-13T06:28:38.636Z,185.63
2018-06-13T06:29:38.635Z,191.25
2018-06-13T06:30:38.629Z,191.25
2018-06-13T06:31:38.632Z,191.25
2018-06-13T06:32:38.629Z,191.25
2018-06-13T06:33:38.619Z,196.88
2018-06-13T06:34:38.618Z,191.25
2018-06-13T06:35:38.616Z,196.88
2018-06-13T06:36:38.609Z,196.88
2018-06-13T06:37:38.616Z,196.88
2018-06-13T06:38:38.604Z,196.88
2018-06-13T06:39:38.604Z,196.88
2018-06-13T06:40:38.595Z,196.88
2018-06-13T06:41:38.599Z,196.88
2018-06-13T06:42:38.591Z,202.50
2018-06-13T06:43:38.591Z,208.13
2018-06-13T06:44:38.586Z,202.50
2018-06-13T06:45:38.580Z,202.50
2018-06-13T06:46:38.578Z,202.50
2018-06-13T06:47:38.575Z,202.50
2018-06-13T06:48:38.572Z,202.50
2018-06-13T06:49:38.604Z,202.50
2018-06-13T06:50:38.565Z,202.50
2018-06-13T06:51:38.565Z,208.13
2018-06-13T06:52:38.563Z,208.13
2018-06-13T06:53:38.560Z,213.75
2018-06-13T06:54:38.552Z,213.75
2018-06-13T06:55:38.632Z,219.38
2018-06-13T06:56:38.546Z,208.13
2018-06-13T06:57:38.545Z,225.00
2018-06-13T06:58:38.541Z,230.63
2018-06-13T06:59:38.538Z,247.50
2018-06-13T07:00:38.535Z,264.38
2018-06-13T07:01:38.533Z,241.88
2018-06-13T07:02:38.528Z,275.63
2018-06-13T07:03:38.522Z,286.88
2018-06-13T07:04:38.518Z,275.63
2018-06-13T07:05:38.516Z,286.88
2018-06-13T07:06:38.517Z,258.75
2018-06-13T07:07:38.513Z,298.13
2018-06-13T07:08:38.511Z,298.13
2018-06-13T07:09:38.503Z,326.25
2018-06-13T07:10:38.501Z,348.75
2018-06-13T07:11:38.511Z,382.50
2018-06-13T07:12:38.497Z,399.38
2018-06-13T07:13:38.496Z,399.38
2018-06-13T07:14:38.493Z,472.50
2018-06-13T07:15:38.492Z,523.13
2018-06-13T07:16:38.488Z,472.50
2018-06-13T07:17:38.528Z,455.63
2018-06-13T07:18:38.484Z,450.00
2018-06-13T07:19:38.484Z,450.00
2018-06-13T07:20:38.479Z,438.75
2018-06-13T07:21:38.477Z,427.50
2018-06-13T07:22:38.475Z,405.00
2018-06-13T07:23:38.474Z,388.13
2018-06-13T07:24:38.518Z,360.00
2018-06-13T07:25:38.470Z,354.38
2018-06-13T07:26:38.468Z,337.50
2018-06-13T07:27:38.464Z,337.50
2018-06-13T07:28:38.461Z,348.75
2018-06-13T07:29:38.459Z,360.00
2018-06-13T07:30:38.460Z,326.25
2018-06-13T07:31:38.458Z,298.13
2018-06-13T07:32:38.453Z,275.63
2018-06-13T07:33:38.460Z,270.00
2018-06-13T07:34:38.449Z,258.75
2018-06-13T07:35:38.448Z,292.50
2018-06-13T07:36:38.445Z,286.88
2018-06-13T07:37:38.444Z,286.88
2018-06-13T07:38:38.441Z,298.13
2018-06-13T07:39:38.437Z,315.00
2018-06-13T07:40:38.437Z,326.25
2018-06-13T07:41:38.434Z,315.00
2018-06-13T07:42:38.433Z,309.38
2018-06-13T07:43:38.429Z,320.63
2018-06-13T07:44:38.432Z,337.50
2018-06-13T07:45:38.429Z,365.63
2018-06-13T07:46:38.426Z,348.75
2018-06-13T07:47:38.422Z,337.50
2018-06-13T07:48:38.418Z,354.38
2018-06-13T07:49:38.445Z,376.88
2018-06-13T07:50:38.414Z,421.88
2018-06-13T07:51:38.415Z,466.88
2018-06-13T07:52:38.409Z,495.00
2018-06-13T07:53:38.408Z,523.13
2018-06-13T07:54:38.406Z,585.00
2018-06-13T07:55:38.406Z,607.50
2018-06-13T07:56:38.405Z,618.75
2018-06-13T07:57:38.399Z,618.75
2018-06-13T07:58:38.404Z,613.13
2018-06-13T07:59:38.397Z,613.13
2018-06-13T08:00:38.393Z,607.50
2018-06-13T08:01:38.392Z,579.38
2018-06-13T08:02:38.388Z,585.00
2018-06-13T08:03:38.388Z,590.63
2018-06-13T08:04:38.386Z,590.63
2018-06-13T08:05:38.390Z,601.88
2018-06-13T08:06:38.386Z,596.25
2018-06-13T08:07:38.381Z,596.25
2018-06-13T08:08:38.510Z,590.63
2018-06-13T08:09:38.380Z,590.63
2018-06-13T08:10:38.377Z,590.63
2018-06-13T08:11:38.375Z,585.00
2018-06-13T08:12:38.376Z,562.50
2018-06-13T08:13:38.371Z,540.00
2018-06-13T08:14:38.372Z,517.50
2018-06-13T08:15:38.370Z,500.63
2018-06-13T08:16:38.368Z,489.38
2018-06-13T08:17:38.366Z,478.13
2018-06-13T08:18:38.366Z,466.88
2018-06-13T08:19:38.367Z,466.88
2018-06-13T08:20:38.365Z,461.25
2018-06-13T08:21:38.363Z,461.25
2018-06-13T08:22:38.362Z,461.25
2018-06-13T08:23:38.359Z,472.50
2018-06-13T08:24:38.355Z,472.50
2018-06-13T08:25:38.356Z,472.50
2018-06-13T08:26:38.353Z,472.50
2018-06-13T08:27:38.350Z,472.50
2018-06-13T08:28:38.349Z,466.88
2018-06-13T08:29:38.345Z,461.25
2018-06-13T08:30:38.344Z,455.63
2018-06-13T08:31:38.344Z,455.63
2018-06-13T08:32:38.345Z,450.00
2018-06-13T08:33:38.352Z,444.38
2018-06-13T08:34:38.340Z,444.38
2018-06-13T08:35:38.340Z,433.13
2018-06-13T08:36:38.338Z,427.50
2018-06-13T08:37:38.335Z,433.13
2018-06-13T08:38:38.333Z,427.50
2018-06-13T08:39:38.338Z,427.50
2018-06-13T08:40:38.337Z,421.88
2018-06-13T08:41:38.334Z,427.50
2018-06-13T08:42:38.328Z,433.13
2018-06-13T08:43:38.327Z,427.50
2018-06-13T08:44:38.324Z,421.88
2018-06-13T08:45:38.326Z,421.88
2018-06-13T08:46:38.325Z,410.63
2018-06-13T08:47:38.323Z,405.00
2018-06-13T08:48:38.343Z,399.38
2018-06-13T08:49:38.318Z,405.00
2018-06-13T08:50:38.319Z,410.63
2018-06-13T08:51:38.316Z,416.25
2018-06-13T08:52:38.318Z,416.25
2018-06-13T08:53:38.313Z,410.63
2018-06-13T08:54:38.312Z,410.63
2018-06-13T08:55:38.317Z,416.25
2018-06-13T08:56:38.311Z,416.25
2018-06-13T08:57:38.309Z,416.25
2018-06-13T08:58:38.308Z,416.25
2018-06-13T08:59:38.307Z,421.88
2018-06-13T09:00:38.305Z,421.88
2018-06-13T09:01:38.304Z,421.88
2018-06-13T09:02:38.302Z,416.25
2018-06-13T09:03:38.303Z,410.63
2018-06-13T09:04:38.300Z,405.00
2018-06-13T09:05:38.298Z,399.38
2018-06-13T09:06:38.298Z,405.00
2018-06-13T09:07:38.297Z,405.00
2018-06-13T09:08:38.296Z,405.00
2018-06-13T09:09:38.296Z,410.63
2018-06-13T09:10:38.296Z,416.25
2018-06-13T09:11:38.293Z,416.25
2018-06-13T09:12:38.292Z,416.25
2018-06-13T09:13:38.291Z,416.25
2018-06-13T09:14:38.293Z,416.25
2018-06-13T09:15:38.289Z,427.50
2018-06-13T09:16:38.286Z,421.88
2018-06-13T09:17:38.287Z,416.25
2018-06-13T09:18:38.286Z,416.25
2018-06-13T09:19:38.291Z,416.25
2018-06-13T09:20:38.284Z,421.88
2018-06-13T09:21:38.284Z,421.88
2018-06-13T09:22:38.283Z,421.88
2018-06-13T09:23:38.280Z,416.25
2018-06-13T09:24:38.279Z,410.63
2018-06-13T09:25:38.285Z,405.00
2018-06-13T09:26:38.281Z,399.38
2018-06-13T09:27:38.282Z,393.75
2018-06-13T09:28:38.273Z,393.75
2018-06-13T09:29:38.271Z,388.13
2018-06-13T09:30:38.272Z,382.50
2018-06-13T09:31:38.270Z,365.63
2018-06-13T09:32:38.267Z,354.38
2018-06-13T09:33:38.266Z,354.38
2018-06-13T09:34:38.266Z,354.38
2018-06-13T09:35:38.267Z,343.13
2018-06-13T09:36:38.265Z,337.50
2018-06-13T09:37:38.416Z,343.13
2018-06-13T09:38:38.261Z,348.75
2018-06-13T09:39:38.263Z,354.38
2018-06-13T09:40:38.256Z,360.00
2018-06-13T09:41:38.256Z,365.63
2018-06-13T09:42:38.252Z,371.25
2018-06-13T09:43:38.253Z,382.50
2018-06-13T09:44:38.251Z,388.13
2018-06-13T09:45:38.250Z,405.00
2018-06-13T09:46:38.249Z,416.25
2018-06-13T09:47:38.246Z,433.13
2018-06-13T09:48:38.248Z,450.00
2018-06-13T09:49:38.246Z,472.50
2018-06-13T09:50:38.242Z,495.00
2018-06-13T09:51:38.244Z,517.50
2018-06-13T09:52:38.237Z,534.38
2018-06-13T09:53:38.237Z,551.25
2018-06-13T09:54:38.235Z,562.50
2018-06-13T09:55:38.235Z,585.00
2018-06-13T09:56:38.236Z,607.50
2018-06-13T09:57:38.231Z,624.38
2018-06-13T09:58:38.232Z,646.88
2018-06-13T09:59:38.232Z,669.38
2018-06-13T10:00:38.227Z,680.63
2018-06-13T10:01:38.237Z,703.13
2018-06-13T10:02:38.226Z,720.00
2018-06-13T10:03:38.227Z,736.88
2018-06-13T10:04:38.280Z,748.13
2018-06-13T10:05:38.223Z,776.25
2018-06-13T10:06:38.223Z,798.75
2018-06-13T10:07:38.221Z,810.00
2018-06-13T10:08:38.269Z,810.00
2018-06-13T10:09:38.219Z,815.63
2018-06-13T10:10:38.219Z,832.50
2018-06-13T10:11:38.218Z,843.75
2018-06-13T10:12:38.216Z,866.25
2018-06-13T10:13:38.217Z,860.63
2018-06-13T10:14:38.215Z,860.63
2018-06-13T10:15:38.219Z,849.38
2018-06-13T10:16:38.215Z,832.50
2018-06-13T10:17:38.264Z,810.00
2018-06-13T10:18:38.218Z,765.00
2018-06-13T10:19:38.214Z,691.88
2018-06-13T10:20:38.242Z,646.88
2018-06-13T10:21:38.215Z,618.75
2018-06-13T10:22:38.214Z,579.38
2018-06-13T10:23:38.212Z,528.75
2018-06-13T10:24:38.213Z,495.00
2018-06-13T10:25:38.213Z,495.00
2018-06-13T10:26:38.260Z,495.00
2018-06-13T10:27:38.212Z,483.75
2018-06-13T10:28:38.212Z,466.88
2018-06-13T10:29:38.214Z,455.63
2018-06-13T10:30:38.213Z,444.38
2018-06-13T10:31:38.212Z,427.50
2018-06-13T10:32:38.212Z,393.75
2018-06-13T10:33:38.213Z,365.63
2018-06-13T10:34:38.211Z,354.38
2018-06-13T10:35:38.209Z,354.38
2018-06-13T10:36:38.208Z,365.63
2018-06-13T10:37:38.209Z,382.50
2018-06-13T10:38:38.209Z,382.50
2018-06-13T10:39:38.209Z,382.50
2018-06-13T10:40:38.206Z,382.50
2018-06-13T10:41:38.206Z,388.13
2018-06-13T10:42:38.205Z,399.38
2018-06-13T10:43:38.207Z,416.25
2018-06-13T10:44:38.207Z,444.38
2018-06-13T10:45:38.206Z,466.88
2018-06-13T10:46:38.209Z,478.13
2018-06-13T10:47:38.201Z,511.88
2018-06-13T10:48:38.201Z,545.63
2018-06-13T10:49:38.199Z,562.50
2018-06-13T10:50:38.204Z,579.38
2018-06-13T10:51:38.199Z,590.63
2018-06-13T10:52:38.195Z,607.50
2018-06-13T10:53:38.196Z,630.00
2018-06-13T10:54:38.197Z,652.50
2018-06-13T10:55:38.243Z,680.63
2018-06-13T10:56:38.193Z,697.50
2018-06-13T10:57:38.193Z,703.13
2018-06-13T10:58:38.191Z,708.75
2018-06-13T10:59:38.192Z,703.13
2018-06-13T11:00:38.190Z,691.88
2018-06-13T11:01:38.192Z,680.63
2018-06-13T11:02:38.193Z,680.63
2018-06-13T11:03:38.190Z,675.00
2018-06-13T11:04:38.223Z,686.25
2018-06-13T11:05:38.189Z,697.50
2018-06-13T11:06:38.191Z,708.75
2018-06-13T11:07:38.188Z,720.00
2018-06-13T11:08:38.188Z,731.25
2018-06-13T11:09:38.187Z,725.63
2018-06-13T11:10:38.187Z,725.63
2018-06-13T11:11:38.188Z,731.25
2018-06-13T11:12:38.185Z,736.88
2018-06-13T11:13:38.188Z,742.50
2018-06-13T11:14:38.192Z,748.13
2018-06-13T11:15:38.197Z,759.38
2018-06-13T11:16:38.186Z,765.00
2018-06-13T11:17:38.186Z,770.63
2018-06-13T11:18:38.185Z,781.88
2018-06-13T11:19:38.187Z,787.50
2018-06-13T11:20:38.186Z,793.13
2018-06-13T11:21:38.190Z,793.13
2018-06-13T11:22:38.186Z,804.38
2018-06-13T11:23:38.187Z,815.63
2018-06-13T11:24:38.185Z,832.50
2018-06-13T11:25:38.189Z,849.38
2018-06-13T11:26:38.189Z,866.25
2018-06-13T11:27:38.187Z,871.88
2018-06-13T11:28:38.187Z,866.25
2018-06-13T11:29:38.189Z,860.63
2018-06-13T11:30:38.185Z,860.63
2018-06-13T11:31:38.231Z,849.38
2018-06-13T11:32:38.185Z,832.50
2018-06-13T11:33:38.185Z,821.25
2018-06-13T11:34:38.186Z,798.75
2018-06-13T11:35:38.186Z,787.50
2018-06-13T11:36:38.188Z,759.38
2018-06-13T11:37:38.193Z,725.63
2018-06-13T11:38:38.188Z,697.50
2018-06-13T11:39:38.187Z,663.75
2018-06-13T11:40:38.188Z,635.63
2018-06-13T11:41:38.190Z,742.50
2018-06-13T11:42:38.187Z,607.50
2018-06-13T11:43:38.189Z,590.63
2018-06-13T11:44:38.188Z,579.38
2018-06-13T11:45:38.191Z,596.25
2018-06-13T11:46:38.191Z,613.13
2018-06-13T11:47:38.192Z,641.25
2018-06-13T11:48:38.190Z,658.13
2018-06-13T11:49:38.190Z,658.13
2018-06-13T11:50:38.191Z,658.13
2018-06-13T11:51:38.190Z,646.88
2018-06-13T11:52:38.190Z,635.63
2018-06-13T11:53:38.203Z,624.38
2018-06-13T11:54:38.192Z,618.75
2018-06-13T11:55:38.191Z,624.38
2018-06-13T11:56:38.193Z,635.63
2018-06-13T11:57:38.192Z,641.25
2018-06-13T11:58:38.194Z,652.50
2018-06-13T11:59:38.193Z,658.13
2018-06-13T12:00:38.192Z,663.75
2018-06-13T12:01:38.229Z,675.00
2018-06-13T12:02:38.195Z,686.25
2018-06-13T12:03:38.197Z,691.88
2018-06-13T12:04:38.196Z,703.13
2018-06-13T12:05:38.194Z,708.75
2018-06-13T12:06:38.195Z,725.63
2018-06-13T12:07:38.193Z,736.88
2018-06-13T12:08:38.194Z,753.75
2018-06-13T12:09:38.197Z,776.25
2018-06-13T12:10:38.193Z,798.75
2018-06-13T12:11:38.271Z,815.63
2018-06-13T12:12:38.195Z,832.50
2018-06-13T12:13:38.194Z,849.38
2018-06-13T12:14:38.196Z,866.25
2018-06-13T12:15:38.194Z,900.00
2018-06-13T12:16:38.193Z,900.00
2018-06-13T12:17:38.195Z,922.50
2018-06-13T12:18:38.201Z,933.75
2018-06-13T12:19:38.197Z,967.50
2018-06-13T12:20:38.216Z,1001.25
2018-06-13T12:21:38.195Z,1046.25
2018-06-13T12:22:38.258Z,1051.88
2018-06-13T12:23:38.197Z,1080.00
2018-06-13T12:24:38.197Z,1057.50
2018-06-13T12:25:38.200Z,1063.13
2018-06-13T12:26:38.196Z,1018.13
2018-06-13T12:27:38.197Z,1001.25
2018-06-13T12:28:38.213Z,1001.25
2018-06-13T12:29:38.196Z,984.38
2018-06-13T12:30:38.196Z,978.75
2018-06-13T12:31:38.199Z,967.50
2018-06-13T12:32:38.197Z,961.88
2018-06-13T12:33:38.197Z,945.00
2018-06-13T12:34:38.197Z,945.00
2018-06-13T12:35:38.202Z,939.38
2018-06-13T12:36:38.199Z,945.00
2018-06-13T12:37:38.201Z,945.00
2018-06-13T12:38:38.202Z,945.00
2018-06-13T12:39:38.201Z,939.38
2018-06-13T12:40:38.205Z,939.38
2018-06-13T12:41:38.205Z,945.00
2018-06-13T12:42:38.206Z,956.25